Time;durP1;ratioP1;P1;durP2;ratioP2;P2;SDS_P1;SDS_P2;PMS_P1;PMS_P2;Temp;Humidity;BMP_temperature;BMP_pressure;BME280_temperature;BME280_humidity;BME280_pressure;Samples;Min_cycle;Max_cycle;Signal;HPM_P1;HPM_P2
2022/06/12 00:01:24;;;;;;;;;;;;;;;18.83;50.13;101194.19;5018205;28;97986;-62
2022/06/12 00:03:50;;;;;;;;;;;;;;;18.79;50.17;101192.38;5011270;27;97694;-62
2022/06/12 00:06:17;;;;;;;;;;;;;;;18.75;50.09;101185.91;5018290;28;104327;-62
2022/06/12 00:08:42;;;;;;;;;;;;;;;18.70;50.25;101194.97;5015802;28;98856;-68
2022/06/12 00:11:10;;;;;;;;;;;;;;;18.67;50.37;101189.28;5017904;27;125117;-67
2022/06/12 00:13:42;;;;;;;;;;;;;;;18.63;50.54;101197.28;5008818;27;114662;-61
2022/06/12 00:16:09;;;;;;;;;;;;;;;18.61;50.57;101189.38;4997320;28;125581;-68
2022/06/12 00:18:35;;;;;;;;;;;;;;;18.61;50.59;101186.66;4998572;28;101632;-67
2022/06/12 00:21:13;;;;;;;;;;;;;;;18.61;50.62;101194.03;4997920;28;126264;-62
2022/06/12 00:23:54;;;;;;;;;;;;;;;18.61;50.48;101192.13;5003490;28;97856;-68
2022/06/12 00:26:26;;;;;;;;;;;;;;;18.60;50.42;101195.97;5012442;27;113559;-68
2022/06/12 00:29:00;;;;;;;;;;;;;;;18.59;50.46;101201.75;5013527;27;112811;-62
2022/06/12 00:31:27;;;;;;;;;;;;;;;18.55;50.76;101197.97;4998339;28;98222;-62
2022/06/12 00:33:53;;;;;;;;;;;;;;;18.51;50.60;101199.69;5010489;28;97515;-68
2022/06/12 00:36:19;;;;;;;;;;;;;;;18.48;50.91;101194.88;5015484;28;119850;-63
2022/06/12 00:38:45;;;;;;;;;;;;;;;18.44;50.93;101199.31;5009759;27;98863;-62
2022/06/12 00:41:10;;;;;;;;;;;;;;;18.41;50.81;101195.25;4995853;28;125723;-68
2022/06/12 00:43:37;;;;;;;;;;;;;;;18.38;51.02;101196.66;4997406;28;117011;-68
2022/06/12 00:46:04;;;;;;;;;;;;;;;18.35;51.04;101196.44;4998049;28;97846;-69
2022/06/12 00:48:32;;;;;;;;;;;;;;;18.28;51.19;101196.88;5001330;28;97180;-68
2022/06/12 00:51:01;;;;;;;;;;;;;;;18.24;51.14;101190.41;5000223;28;124718;-62
2022/06/12 00:53:37;;;;;;;;;;;;;;;18.19;51.23;101197.84;5000561;28;97869;-69
2022/06/12 00:56:14;;;;;;;;;;;;;;;18.14;51.21;101196.84;4999366;28;98744;-62
2022/06/12 00:58:44;;;;;;;;;;;;;;;18.09;51.36;101194.22;5015495;27;122919;-62
2022/06/12 01:01:14;;;;;;;;;;;;;;;18.06;51.54;101196.72;4999038;28;99306;-68
2022/06/12 01:06:33;;;;;;;;;;;;;;;17.99;51.76;101188.13;5003265;28;97509;-68
2022/06/12 01:09:00;;;;;;;;;;;;;;;17.93;51.89;101195.59;5021483;27;97544;-68
2022/06/12 01:11:26;;;;;;;;;;;;;;;17.90;52.00;101190.72;5021005;27;98114;-62
2022/06/12 01:13:52;;;;;;;;;;;;;;;17.85;52.05;101191.63;5016738;27;115671;-62
2022/06/12 01:16:19;;;;;;;;;;;;;;;17.82;52.14;101194.13;5017489;28;127470;-68
2022/06/12 01:18:50;;;;;;;;;;;;;;;17.77;52.24;101197.75;5009090;28;119955;-68
2022/06/12 01:21:28;;;;;;;;;;;;;;;17.73;52.20;101185.81;5000176;28;97604;-64
2022/06/12 01:24:35;;;;;;;;;;;;;;;17.70;52.13;101188.31;5002049;28;97752;-69
2022/06/12 01:27:20;;;;;;;;;;;;;;;17.63;52.32;101180.50;5002516;28;98934;-69
2022/06/12 01:29:55;;;;;;;;;;;;;;;17.59;52.37;101185.75;5017958;28;125002;-63
2022/06/12 01:32:38;;;;;;;;;;;;;;;17.58;52.33;101181.41;5020311;28;127085;-68
2022/06/12 01:35:09;;;;;;;;;;;;;;;17.54;52.57;101179.56;5001383;28;114987;-62
2022/06/12 01:37:41;;;;;;;;;;;;;;;17.53;52.49;101183.41;5016264;28;98093;-63
2022/06/12 01:40:36;;;;;;;;;;;;;;;17.49;52.46;101183.19;5018386;28;100613;-62
2022/06/12 01:43:18;;;;;;;;;;;;;;;17.49;52.49;101185.09;5001565;28;110255;-62
2022/06/12 01:46:20;;;;;;;;;;;;;;;17.48;52.32;101183.47;5018287;28;108241;-69
2022/06/12 01:48:49;;;;;;;;;;;;;;;17.46;52.67;101191.94;4995540;28;97567;-69
2022/06/12 01:51:31;;;;;;;;;;;;;;;17.45;52.53;101190.34;5000496;28;102514;-62
2022/06/12 01:54:28;;;;;;;;;;;;;;;17.43;52.67;101195.25;5014115;27;97787;-69
2022/06/12 01:57:01;;;;;;;;;;;;;;;17.41;52.85;101194.75;5015169;28;97691;-62
2022/06/12 01:59:31;;;;;;;;;;;;;;;17.38;52.77;101185.25;5011677;27;98844;-63
2022/06/12 02:02:05;;;;;;;;;;;;;;;17.35;53.00;101194.00;5018511;28;97975;-69
2022/06/12 02:04:43;;;;;;;;;;;;;;;17.33;52.92;101189.94;5017343;28;126528;-62
2022/06/12 02:07:16;;;;;;;;;;;;;;;17.29;53.16;101189.75;5018749;28;97773;-69
2022/06/12 02:09:45;;;;;;;;;;;;;;;17.26;52.95;101186.81;5000097;27;124998;-68
2022/06/12 02:15:12;;;;;;;;;;;;;;;17.16;53.30;101193.19;5016784;28;97786;-69
2022/06/12 02:17:43;;;;;;;;;;;;;;;17.11;53.21;101183.19;4999794;28;111963;-62
2022/06/12 02:20:10;;;;;;;;;;;;;;;17.07;53.32;101181.34;5032143;27;100634;-69
2022/06/12 02:22:38;;;;;;;;;;;;;;;17.05;53.26;101180.81;5000987;28;125795;-69
2022/06/12 02:25:13;;;;;;;;;;;;;;;17.01;53.55;101171.63;5016633;28;97698;-62
2022/06/12 02:27:54;;;;;;;;;;;;;;;16.98;53.46;101170.31;5003792;28;97569;-69
2022/06/12 02:30:41;;;;;;;;;;;;;;;16.92;53.84;101166.81;4998132;28;126198;-63
2022/06/12 02:33:11;;;;;;;;;;;;;;;16.88;53.68;101170.44;5018589;28;103414;-70
2022/06/12 02:36:08;;;;;;;;;;;;;;;16.83;53.89;101165.88;5017407;28;98064;-69
2022/06/12 02:38:45;;;;;;;;;;;;;;;16.80;53.76;101163.72;5009537;28;97423;-62
2022/06/12 02:41:18;;;;;;;;;;;;;;;16.77;54.04;101153.41;5012797;28;125516;-62
2022/06/12 02:43:44;;;;;;;;;;;;;;;16.76;54.07;101156.44;5021669;27;98242;-62
2022/06/12 02:46:33;;;;;;;;;;;;;;;16.72;54.09;101155.38;5002625;28;98221;-63
2022/06/12 02:48:59;;;;;;;;;;;;;;;16.69;54.16;101160.28;4999526;28;97341;-69
2022/06/12 02:51:50;;;;;;;;;;;;;;;16.67;54.09;101154.34;4997048;28;122167;-68
2022/06/12 02:54:20;;;;;;;;;;;;;;;16.66;54.05;101151.88;5014529;28;98621;-62
2022/06/12 02:56:46;;;;;;;;;;;;;;;16.67;54.18;101148.09;5016592;28;127695;-69
2022/06/12 02:59:34;;;;;;;;;;;;;;;16.65;54.27;101140.19;5006261;27;97141;-69
2022/06/12 03:02:09;;;;;;;;;;;;;;;16.65;54.65;101153.00;4996527;28;127791;-62
2022/06/12 03:04:45;;;;;;;;;;;;;;;16.63;54.66;101149.78;5032236;27;98779;-63
2022/06/12 03:07:11;;;;;;;;;;;;;;;16.61;54.55;101146.53;5016203;28;121550;-69
2022/06/12 03:09:37;;;;;;;;;;;;;;;16.58;54.61;101142.47;5014319;28;117510;-69
2022/06/12 03:12:04;;;;;;;;;;;;;;;16.59;54.56;101149.53;5019414;28;98243;-69
2022/06/12 03:14:30;;;;;;;;;;;;;;;16.59;54.67;101144.09;5016344;28;98641;-63
2022/06/12 03:16:55;;;;;;;;;;;;;;;16.58;54.45;101150.63;5018120;27;125710;-63
2022/06/12 03:19:23;;;;;;;;;;;;;;;16.61;54.51;101150.03;5015356;27;117054;-69
2022/06/12 03:22:11;;;;;;;;;;;;;;;16.63;54.70;101153.31;5018695;27;98859;-64
2022/06/12 03:25:04;;;;;;;;;;;;;;;16.64;54.58;101146.75;5012937;27;98419;-62
2022/06/12 03:27:37;;;;;;;;;;;;;;;16.66;54.56;101146.44;5001976;27;117594;-63
2022/06/12 03:30:05;;;;;;;;;;;;;;;16.66;54.61;101150.00;5016856;28;97365;-63
2022/06/12 03:32:49;;;;;;;;;;;;;;;16.65;54.56;101156.53;5016748;28;98495;-69
2022/06/12 03:35:37;;;;;;;;;;;;;;;16.67;54.56;101156.25;5018038;27;98661;-62
2022/06/12 03:38:20;;;;;;;;;;;;;;;16.64;54.86;101154.91;5012745;28;97335;-69
2022/06/12 03:41:05;;;;;;;;;;;;;;;16.61;54.58;101154.69;4998001;28;114753;-69
2022/06/12 03:43:42;;;;;;;;;;;;;;;16.60;54.71;101155.78;5002207;28;98287;-66
2022/06/12 03:46:19;;;;;;;;;;;;;;;16.61;54.55;101163.66;5019088;27;98025;-62
2022/06/12 03:48:45;;;;;;;;;;;;;;;16.64;54.57;101167.72;5018352;27;97323;-69
2022/06/12 03:51:32;;;;;;;;;;;;;;;16.66;54.66;101168.22;5017956;27;96933;-63
2022/06/12 03:54:09;;;;;;;;;;;;;;;16.69;54.63;101163.00;5005346;28;97619;-67
2022/06/12 03:59:36;;;;;;;;;;;;;;;16.76;54.65;101165.41;5000262;28;97511;-62
2022/06/12 04:02:02;;;;;;;;;;;;;;;16.81;54.61;101164.53;5009549;27;98475;-62
2022/06/12 04:04:30;;;;;;;;;;;;;;;16.85;54.64;101168.28;4996275;28;98942;-68
2022/06/12 04:06:56;;;;;;;;;;;;;;;16.89;54.52;101169.31;4997583;28;97788;-68
2022/06/12 04:09:24;;;;;;;;;;;;;;;16.94;54.58;101166.56;4995313;28;125951;-68
2022/06/12 04:11:57;;;;;;;;;;;;;;;16.99;54.42;101165.66;5001572;28;102679;-69
2022/06/12 04:14:26;;;;;;;;;;;;;;;17.04;54.55;101166.41;4998523;28;98529;-62
2022/06/12 04:16:54;;;;;;;;;;;;;;;17.10;54.37;101162.50;5015804;28;114155;-69
2022/06/12 04:19:21;;;;;;;;;;;;;;;17.17;54.33;101162.97;4998136;28;123550;-63
2022/06/12 04:22:04;;;;;;;;;;;;;;;17.25;54.32;101164.22;5013832;28;113625;-69
2022/06/12 04:24:51;;;;;;;;;;;;;;;17.32;54.38;101156.44;4988491;28;117454;-62
2022/06/12 04:27:28;;;;;;;;;;;;;;;17.41;54.13;101157.41;5003821;28;125092;-64
2022/06/12 04:29:59;;;;;;;;;;;;;;;17.51;54.17;101161.88;5015576;28;97556;-69
2022/06/12 04:32:25;;;;;;;;;;;;;;;17.60;53.98;101153.84;5006879;27;114546;-71
2022/06/12 04:34:53;;;;;;;;;;;;;;;17.70;53.99;101161.84;5011082;28;125075;-69
2022/06/12 04:37:29;;;;;;;;;;;;;;;17.80;53.91;101155.44;5018095;27;98662;-62
2022/06/12 04:39:57;;;;;;;;;;;;;;;17.94;53.85;101155.47;5017165;27;126250;-62
2022/06/12 04:42:23;;;;;;;;;;;;;;;18.06;53.76;101150.34;5008431;27;96948;-69
2022/06/12 04:44:49;;;;;;;;;;;;;;;18.18;53.53;101150.66;4996935;28;112495;-62
2022/06/12 04:47:17;;;;;;;;;;;;;;;18.31;53.57;101149.88;4996863;28;127131;-62
2022/06/12 04:49:43;;;;;;;;;;;;;;;18.41;53.61;101140.69;5030696;27;97694;-68
2022/06/12 04:52:10;;;;;;;;;;;;;;;18.51;53.80;101145.09;5009397;28;113649;-69
2022/06/12 04:54:37;;;;;;;;;;;;;;;18.70;53.33;101145.81;4996756;28;126465;-62
2022/06/12 04:57:03;;;;;;;;;;;;;;;18.95;53.08;101144.50;5018087;28;97713;-69
2022/06/12 04:59:29;;;;;;;;;;;;;;;19.24;52.90;101143.28;5015381;27;116050;-62
2022/06/12 05:01:55;;;;;;;;;;;;;;;19.48;52.66;101140.25;5011922;28;116524;-62
2022/06/12 05:04:22;;;;;;;;;;;;;;;19.65;52.61;101147.78;4996634;28;97590;-63
2022/06/12 05:06:49;;;;;;;;;;;;;;;19.74;52.21;101145.94;4998167;28;98884;-69
2022/06/12 05:09:15;;;;;;;;;;;;;;;19.91;52.07;101137.81;5007020;28;98637;-62
2022/06/12 05:11:41;;;;;;;;;;;;;;;20.10;51.88;101134.84;5013891;27;99605;-69
2022/06/12 05:14:07;;;;;;;;;;;;;;;20.22;51.92;101140.53;4995813;28;97875;-62
2022/06/12 05:16:39;;;;;;;;;;;;;;;20.50;51.33;101134.84;4997070;28;98587;-69
2022/06/12 05:19:06;;;;;;;;;;;;;;;20.82;50.96;101134.44;4974229;28;125335;-69
2022/06/12 05:21:32;;;;;;;;;;;;;;;20.97;50.93;101129.63;4983138;28;97836;-62
2022/06/12 05:23:58;;;;;;;;;;;;;;;21.25;50.61;101132.84;5016404;28;97965;-68
2022/06/12 05:26:24;;;;;;;;;;;;;;;21.48;50.25;101130.75;5012348;28;99090;-62
2022/06/12 05:28:50;;;;;;;;;;;;;;;21.65;50.04;101127.97;4997281;28;126351;-69
2022/06/12 05:31:16;;;;;;;;;;;;;;;21.82;49.91;101124.41;5013075;28;97458;-69
2022/06/12 05:33:43;;;;;;;;;;;;;;;21.98;49.78;101124.69;5016861;27;97379;-69
2022/06/12 05:36:10;;;;;;;;;;;;;;;22.11;49.56;101115.41;5020723;28;98132;-68
2022/06/12 05:38:36;;;;;;;;;;;;;;;22.26;49.29;101111.34;5018757;28;126149;-62
2022/06/12 05:41:02;;;;;;;;;;;;;;;22.29;49.36;101105.19;5008866;27;97565;-62
2022/06/12 05:43:28;;;;;;;;;;;;;;;22.28;49.41;101112.63;5001359;28;121465;-68
2022/06/12 05:45:55;;;;;;;;;;;;;;;22.32;49.25;101123.72;4999795;28;126526;-69
2022/06/12 05:48:22;;;;;;;;;;;;;;;22.54;48.84;101112.47;5003771;28;97652;-62
2022/06/12 05:50:55;;;;;;;;;;;;;;;24.29;46.00;101112.47;5015888;27;112701;-68
2022/06/12 05:53:23;;;;;;;;;;;;;;;24.32;46.18;101106.25;4992535;28;97535;-69
2022/06/12 05:55:49;;;;;;;;;;;;;;;26.56;42.75;101104.53;4995426;28;97565;-62
2022/06/12 05:58:15;;;;;;;;;;;;;;;25.81;44.11;101111.00;5009683;27;97422;-62
2022/06/12 06:00:41;;;;;;;;;;;;;;;27.32;42.45;101105.78;4996507;28;98004;-62
2022/06/12 06:03:07;;;;;;;;;;;;;;;28.14;41.86;101112.00;4992534;28;126416;-62
2022/06/12 06:05:35;;;;;;;;;;;;;;;28.20;42.15;101118.00;4993310;28;118292;-62
2022/06/12 06:08:01;;;;;;;;;;;;;;;28.12;41.36;101111.56;4975779;28;97530;-69
2022/06/12 06:10:28;;;;;;;;;;;;;;;28.52;40.24;101110.19;4995174;28;97327;-63
2022/06/12 06:12:54;;;;;;;;;;;;;;;28.77;39.53;101111.38;4994004;28;98601;-62
2022/06/12 06:15:20;;;;;;;;;;;;;;;28.33;40.53;101109.09;4994394;28;98218;-69
2022/06/12 06:17:46;;;;;;;;;;;;;;;27.84;41.13;101115.44;4993939;28;111977;-69
2022/06/12 06:20:15;;;;;;;;;;;;;;;27.49;41.42;101100.94;4993645;28;115380;-69
2022/06/12 06:22:40;;;;;;;;;;;;;;;27.16;41.56;101105.88;4994379;28;99309;-62
2022/06/12 06:25:07;;;;;;;;;;;;;;;26.87;41.25;101107.19;4993657;28;128233;-62
2022/06/12 06:27:33;;;;;;;;;;;;;;;26.63;41.31;101101.94;4988873;28;111183;-69
2022/06/12 06:29:59;;;;;;;;;;;;;;;26.40;40.51;101104.53;4995858;28;116073;-62
2022/06/12 06:32:25;;;;;;;;;;;;;;;26.22;41.02;101109.66;4973771;28;128594;-62
2022/06/12 06:34:50;;;;;;;;;;;;;;;26.07;41.16;101102.19;4990920;28;127604;-62
2022/06/12 06:37:16;;;;;;;;;;;;;;;26.00;41.17;101102.81;4991830;28;104539;-69
2022/06/12 06:39:42;;;;;;;;;;;;;;;26.03;41.14;101104.84;4993161;28;111711;-62
2022/06/12 06:42:10;;;;;;;;;;;;;;;26.03;40.92;101098.53;4993885;28;100914;-69
2022/06/12 06:47:21;;;;;;;;;;;;;;;26.28;40.67;101101.88;4987793;28;97537;-63
2022/06/12 06:49:47;;;;;;;;;;;;;;;26.41;40.56;101108.94;4992287;28;97804;-63
2022/06/12 06:52:13;;;;;;;;;;;;;;;26.34;40.80;101122.56;4991710;28;98406;-62
2022/06/12 06:54:39;;;;;;;;;;;;;;;26.33;41.04;101120.94;4998840;28;126360;-69
2022/06/12 06:57:05;;;;;;;;;;;;;;;26.33;41.39;101115.41;4993741;28;98302;-63
2022/06/12 06:59:31;;;;;;;;;;;;;;;26.41;41.61;101112.47;5001554;28;116337;-62
2022/06/12 07:01:58;;;;;;;;;;;;;;;26.41;41.61;101117.22;4994714;28;98991;-69
2022/06/12 07:04:24;;;;;;;;;;;;;;;26.44;41.64;101108.19;4999058;28;128044;-62
2022/06/12 07:06:50;;;;;;;;;;;;;;;26.31;41.78;101109.47;4993211;28;120092;-72
2022/06/12 07:09:16;;;;;;;;;;;;;;;26.06;42.82;101108.88;4997017;28;117029;-72
2022/06/12 07:11:42;;;;;;;;;;;;;;;26.63;42.17;101090.88;4996543;28;127937;-72
2022/06/12 07:14:08;;;;;;;;;;;;;;;26.23;43.42;101097.44;4994451;28;125717;-64
2022/06/12 07:16:34;;;;;;;;;;;;;;;26.04;43.33;101092.63;4993366;28;115453;-72
2022/06/12 07:19:00;;;;;;;;;;;;;;;25.93;43.38;101099.84;4993914;28;113658;-64
2022/06/12 07:21:25;;;;;;;;;;;;;;;25.88;43.53;101103.69;4992607;28;123015;-71
2022/06/12 07:23:51;;;;;;;;;;;;;;;25.82;43.71;101101.53;4992420;28;126452;-67
2022/06/12 07:26:29;;;;;;;;;;;;;;;25.70;44.04;101094.94;4990452;28;105900;-64
2022/06/12 07:28:55;;;;;;;;;;;;;;;25.65;44.67;101094.38;4991504;28;97818;-71
2022/06/12 07:31:21;;;;;;;;;;;;;;;25.69;44.43;101090.56;4997448;27;125576;-64
2022/06/12 07:33:47;;;;;;;;;;;;;;;26.17;43.93;101096.09;4992718;28;111033;-71
2022/06/12 07:36:14;;;;;;;;;;;;;;;27.20;42.26;101094.88;4992142;28;127440;-64
2022/06/12 07:38:40;;;;;;;;;;;;;;;27.15;42.31;101090.41;4991931;28;98246;-71
2022/06/12 07:41:08;;;;;;;;;;;;;;;27.49;41.67;101098.16;5008036;28;97962;-71
2022/06/12 07:43:34;;;;;;;;;;;;;;;28.62;40.57;101090.16;4990932;28;98786;-64
2022/06/12 07:46:01;;;;;;;;;;;;;;;29.45;39.28;101083.63;4993758;28;98370;-65
2022/06/12 07:48:27;;;;;;;;;;;;;;;29.20;39.94;101086.94;4992388;28;113696;-71
2022/06/12 07:50:53;;;;;;;;;;;;;;;29.85;38.79;101085.63;5006661;28;124532;-71
2022/06/12 07:53:20;;;;;;;;;;;;;;;30.75;37.74;101081.50;4991265;28;98186;-64
2022/06/12 07:55:46;;;;;;;;;;;;;;;31.55;37.03;101078.56;4991233;28;97407;-71
2022/06/12 07:58:13;;;;;;;;;;;;;;;32.38;36.00;101079.31;4992347;28;108171;-65
2022/06/12 08:00:39;;;;;;;;;;;;;;;33.17;34.99;101077.88;4995288;28;98746;-64
2022/06/12 08:03:05;;;;;;;;;;;;;;;33.91;33.90;101086.94;4993641;27;97651;-65
2022/06/12 08:05:31;;;;;;;;;;;;;;;34.58;33.50;101081.91;4992766;28;97883;-71
2022/06/12 08:07:57;;;;;;;;;;;;;;;35.31;32.69;101074.97;4992870;28;97402;-64
2022/06/12 08:10:23;;;;;;;;;;;;;;;35.96;31.50;101073.94;4992403;28;127367;-71
2022/06/12 08:12:49;;;;;;;;;;;;;;;36.76;30.61;101072.06;4996220;28;101755;-71
2022/06/12 08:15:18;;;;;;;;;;;;;;;36.41;30.73;101065.13;4997319;28;98978;-71
2022/06/12 08:17:44;;;;;;;;;;;;;;;35.56;31.31;101059.81;4992277;28;114473;-72
2022/06/12 08:20:28;;;;;;;;;;;;;;;36.06;30.63;101059.75;4993178;28;128632;-71
2022/06/12 08:22:56;;;;;;;;;;;;;;;37.21;29.53;101052.59;4992826;28;97630;-64
2022/06/12 08:25:22;;;;;;;;;;;;;;;38.19;28.19;101054.59;4991052;28;97996;-71
2022/06/12 08:27:48;;;;;;;;;;;;;;;39.03;27.74;101044.16;4983472;28;115512;-70
2022/06/12 08:30:14;;;;;;;;;;;;;;;39.85;26.72;101047.09;4994379;28;98809;-68
2022/06/12 08:32:41;;;;;;;;;;;;;;;40.58;25.46;101044.09;4991341;28;127855;-64
2022/06/12 08:35:12;;;;;;;;;;;;;;;41.12;25.05;101045.66;4995703;28;125405;-65
2022/06/12 08:37:38;;;;;;;;;;;;;;;41.78;24.51;101044.53;4973428;28;112361;-64
2022/06/12 08:40:09;;;;;;;;;;;;;;;42.35;23.65;101040.03;4995089;28;98138;-65
2022/06/12 08:42:56;;;;;;;;;;;;;;;42.88;22.84;101036.75;4992387;28;125189;-64
2022/06/12 08:45:29;;;;;;;;;;;;;;;43.48;22.83;101028.63;4991536;28;97616;-64
2022/06/12 08:48:20;;;;;;;;;;;;;;;44.09;21.93;101021.34;4973934;28;110410;-71
2022/06/12 08:50:56;;;;;;;;;;;;;;;44.77;21.17;101020.50;4991475;28;98593;-64
2022/06/12 08:53:32;;;;;;;;;;;;;;;45.17;20.70;101013.38;4989533;28;125197;-70
2022/06/12 08:56:02;;;;;;;;;;;;;;;45.69;20.07;101010.69;4974712;28;98853;-70
2022/06/12 08:58:36;;;;;;;;;;;;;;;46.11;19.88;101002.88;4976584;28;97752;-68
2022/06/12 09:01:02;;;;;;;;;;;;;;;46.61;19.85;101000.50;4988503;28;124540;-62
2022/06/12 09:03:32;;;;;;;;;;;;;;;46.97;19.20;100989.63;4990546;28;98854;-70
2022/06/12 09:06:12;;;;;;;;;;;;;;;47.32;18.88;100994.22;4989704;28;119879;-62
2022/06/12 09:08:48;;;;;;;;;;;;;;;47.54;18.50;100987.81;4973822;28;109228;-68
2022/06/12 09:12:16;;;;;;;;;;;;;;;47.91;18.55;100993.38;5002920;28;98772;-62
2022/06/12 09:14:51;;;;;;;;;;;;;;;48.08;18.02;100982.03;4982880;28;97465;-68
2022/06/12 09:17:39;;;;;;;;;;;;;;;48.15;18.45;100970.09;4994256;28;97597;-68
2022/06/12 09:20:29;;;;;;;;;;;;;;;48.37;18.37;100966.44;4992844;28;109930;-68
2022/06/12 09:23:25;;;;;;;;;;;;;;;48.17;18.15;100958.91;4983651;28;101127;-62
2022/06/12 09:25:57;;;;;;;;;;;;;;;47.53;17.96;100952.81;4985994;28;117214;-68
2022/06/12 09:28:49;;;;;;;;;;;;;;;47.10;18.68;100946.41;5001133;28;120578;-62
2022/06/12 09:31:54;;;;;;;;;;;;;;;46.58;18.46;100947.38;4997452;28;98273;-62
2022/06/12 09:34:38;;;;;;;;;;;;;;;46.25;18.67;100942.97;4974620;28;110788;-68
2022/06/12 09:40:03;;;;;;;;;;;;;;;46.75;18.33;100944.63;4989275;28;96940;-68
2022/06/12 09:42:55;;;;;;;;;;;;;;;46.96;17.39;100948.91;4994994;28;97378;-68
2022/06/12 09:45:34;;;;;;;;;;;;;;;47.61;17.62;100941.69;4999329;28;99449;-62
2022/06/12 09:48:10;;;;;;;;;;;;;;;48.28;16.92;100936.06;4994713;28;97580;-68
2022/06/12 09:51:06;;;;;;;;;;;;;;;48.86;16.63;100942.00;4991453;28;126842;-68
2022/06/12 09:53:54;;;;;;;;;;;;;;;49.61;16.00;100936.22;4996670;28;97983;-68
2022/06/12 09:56:40;;;;;;;;;;;;;;;49.97;15.73;100933.38;4992617;28;128512;-68
2022/06/12 09:59:22;;;;;;;;;;;;;;;50.31;15.42;100927.34;4993374;28;125141;-68
2022/06/12 10:01:49;;;;;;;;;;;;;;;50.60;15.88;100922.94;4992682;28;125705;-67
2022/06/12 10:04:36;;;;;;;;;;;;;;;50.97;15.44;100924.34;4976476;28;97636;-68
2022/06/12 10:07:13;;;;;;;;;;;;;;;51.36;15.63;100920.97;4993239;28;98995;-62
2022/06/12 10:09:48;;;;;;;;;;;;;;;51.61;15.03;100910.19;4978359;28;97843;-67
2022/06/12 10:12:19;;;;;;;;;;;;;;;51.71;15.13;100905.59;4994027;28;97518;-67
2022/06/12 10:14:50;;;;;;;;;;;;;;;51.85;15.01;100899.91;4999247;28;112842;-62
2022/06/12 10:17:39;;;;;;;;;;;;;;;51.82;14.86;100896.00;4994252;28;98850;-62
2022/06/12 10:20:10;;;;;;;;;;;;;;;51.83;15.07;100891.03;4995263;28;99034;-66
2022/06/12 10:22:38;;;;;;;;;;;;;;;51.86;15.18;100895.69;4993828;28;110659;-62
2022/06/12 10:25:05;;;;;;;;;;;;;;;51.92;14.88;100890.66;4994437;28;97692;-61
2022/06/12 10:27:46;;;;;;;;;;;;;;;49.85;15.96;100892.59;4991172;28;107030;-61
2022/06/12 10:30:24;;;;;;;;;;;;;;;50.50;15.31;100888.06;5001546;28;98287;-61
2022/06/12 10:32:53;;;;;;;;;;;;;;;50.96;15.20;100886.28;4993667;28;97342;-66
2022/06/12 10:35:21;;;;;;;;;;;;;;;50.26;15.67;100885.22;4995119;27;97973;-61
2022/06/12 10:37:47;;;;;;;;;;;;;;;48.95;16.48;100880.88;4993623;28;98698;-66
2022/06/12 10:40:16;;;;;;;;;;;;;;;46.87;17.43;100882.78;5004031;28;98733;-61
2022/06/12 10:43:02;;;;;;;;;;;;;;;46.56;17.41;100892.16;4993612;28;97511;-61
2022/06/12 10:45:33;;;;;;;;;;;;;;;48.13;16.64;100895.56;4993693;28;97498;-62
2022/06/12 10:48:19;;;;;;;;;;;;;;;46.86;17.06;100884.06;4994528;28;98780;-66
2022/06/12 10:50:56;;;;;;;;;;;;;;;45.60;17.82;100893.41;4995882;28;97808;-66
2022/06/12 10:53:29;;;;;;;;;;;;;;;45.16;17.79;100883.06;4993273;28;98092;-61
2022/06/12 10:56:07;;;;;;;;;;;;;;;46.94;16.97;100890.84;4993549;28;97545;-66
2022/06/12 10:58:51;;;;;;;;;;;;;;;47.79;16.56;100881.25;4999314;28;98901;-67
2022/06/12 11:01:38;;;;;;;;;;;;;;;48.42;16.72;100879.97;5000129;28;98696;-61
2022/06/12 11:04:10;;;;;;;;;;;;;;;47.76;17.25;100875.84;4992557;28;97598;-62
2022/06/12 11:07:11;;;;;;;;;;;;;;;48.78;16.39;100877.31;4994347;28;98257;-66
2022/06/12 11:10:08;;;;;;;;;;;;;;;47.60;17.00;100861.00;5008839;27;97774;-68
2022/06/12 11:13:27;;;;;;;;;;;;;;;45.94;18.02;100863.22;4978185;28;98011;-67
2022/06/12 11:16:02;;;;;;;;;;;;;;;47.06;17.38;100866.03;4962821;28;98533;-61
2022/06/12 11:18:51;;;;;;;;;;;;;;;45.70;18.23;100858.56;4993476;28;97941;-63
2022/06/12 11:21:39;;;;;;;;;;;;;;;45.94;17.85;100861.13;4990797;28;125492;-61
2022/06/12 11:24:19;;;;;;;;;;;;;;;46.83;17.39;100857.34;4992797;28;98697;-67
2022/06/12 11:27:00;;;;;;;;;;;;;;;47.39;17.31;100862.50;4987912;28;98507;-67
2022/06/12 11:29:35;;;;;;;;;;;;;;;45.07;18.66;100849.88;4999180;28;97678;-61
2022/06/12 11:32:15;;;;;;;;;;;;;;;44.90;18.87;100848.88;4994969;28;97971;-62
2022/06/12 11:35:12;;;;;;;;;;;;;;;44.30;18.94;100849.06;4991690;28;118869;-61
2022/06/12 11:37:55;;;;;;;;;;;;;;;44.12;19.02;100857.00;4994368;28;97878;-67
2022/06/12 11:40:25;;;;;;;;;;;;;;;44.67;18.90;100857.09;4992734;28;97330;-61
2022/06/12 11:43:01;;;;;;;;;;;;;;;44.11;19.13;100844.88;4992063;28;124686;-67
2022/06/12 11:45:41;;;;;;;;;;;;;;;44.50;18.99;100844.69;4985579;28;98433;-61
2022/06/12 11:48:33;;;;;;;;;;;;;;;44.46;19.00;100847.75;4994278;28;97513;-67
2022/06/12 11:51:07;;;;;;;;;;;;;;;44.45;19.23;100842.53;4991306;28;97643;-61
2022/06/12 11:53:56;;;;;;;;;;;;;;;44.31;18.54;100827.13;4995484;28;124982;-61
2022/06/12 11:56:42;;;;;;;;;;;;;;;42.64;19.64;100809.25;4945472;28;113923;-61
2022/06/12 11:59:28;;;;;;;;;;;;;;;43.51;19.28;100818.56;4948099;28;98257;-68
2022/06/12 12:02:13;;;;;;;;;;;;;;;43.23;19.01;100808.69;4962926;28;98078;-61
2022/06/12 12:04:51;;;;;;;;;;;;;;;42.92;19.73;100820.41;4964492;28;98358;-66
2022/06/12 12:07:23;;;;;;;;;;;;;;;43.28;19.15;100822.22;4958175;28;122111;-66
2022/06/12 12:10:03;;;;;;;;;;;;;;;43.47;19.26;100820.00;4976271;27;98443;-61
2022/06/12 12:12:32;;;;;;;;;;;;;;;43.77;19.41;100812.28;4955297;28;98295;-67
2022/06/12 12:14:59;;;;;;;;;;;;;;;43.96;18.94;100807.97;4956061;28;98575;-61
2022/06/12 12:17:31;;;;;;;;;;;;;;;44.18;18.89;100803.94;4954900;28;119672;-61
2022/06/12 12:20:04;;;;;;;;;;;;;;;44.26;18.18;100820.09;4962369;28;103346;-61
2022/06/12 12:22:36;;;;;;;;;;;;;;;44.24;18.43;100802.72;4954214;28;109309;-66
2022/06/12 12:25:24;;;;;;;;;;;;;;;44.28;18.13;100800.50;4955054;28;98535;-61
2022/06/12 12:27:54;;;;;;;;;;;;;;;43.38;19.00;100798.94;4955111;28;98675;-65
2022/06/12 12:30:25;;;;;;;;;;;;;;;43.65;18.87;100799.97;4960854;28;98252;-66
2022/06/12 12:32:55;;;;;;;;;;;;;;;42.88;18.80;100787.41;4960759;28;98053;-66
2022/06/12 12:41:13;;;;;;;;;;;;;;;43.43;18.47;100789.00;4970392;27;97995;-66
2022/06/12 12:43:58;;;;;;;;;;;;;;;43.33;18.52;100796.03;4961949;28;98071;-66
2022/06/12 12:46:38;;;;;;;;;;;;;;;43.22;18.54;100778.78;4961138;28;99602;-61
2022/06/12 12:49:04;;;;;;;;;;;;;;;43.05;18.37;100781.28;4959481;28;127605;-61
2022/06/12 12:51:33;;;;;;;;;;;;;;;43.09;18.68;100776.25;4958538;28;127754;-61
2022/06/12 12:54:16;;;;;;;;;;;;;;;43.01;18.59;100783.53;4964568;28;97841;-66
2022/06/12 12:56:59;;;;;;;;;;;;;;;42.93;18.13;100785.19;4962042;28;99067;-66
2022/06/12 12:59:38;;;;;;;;;;;;;;;42.38;18.27;100786.31;4966829;28;98716;-60
2022/06/12 13:02:27;;;;;;;;;;;;;;;42.05;18.63;100775.75;4966487;28;124948;-60
2022/06/12 13:04:56;;;;;;;;;;;;;;;41.17;18.85;100787.06;4949198;28;99055;-66
2022/06/12 13:07:44;;;;;;;;;;;;;;;41.55;18.58;100782.97;4964903;27;99023;-60
2022/06/12 13:10:28;;;;;;;;;;;;;;;41.53;18.68;100783.44;4943645;28;128177;-66
2022/06/12 13:13:16;;;;;;;;;;;;;;;41.43;18.54;100776.25;4959932;28;98711;-59
2022/06/12 13:15:57;;;;;;;;;;;;;;;41.40;18.35;100763.06;4956085;28;97984;-60
2022/06/12 13:18:39;;;;;;;;;;;;;;;41.28;18.89;100756.28;4957496;28;98522;-60
2022/06/12 13:21:30;;;;;;;;;;;;;;;41.13;18.78;100767.44;4960628;28;125241;-60
2022/06/12 13:24:36;;;;;;;;;;;;;;;40.95;19.17;100776.69;4960204;28;98325;-66
2022/06/12 13:27:25;;;;;;;;;;;;;;;40.32;19.64;100764.00;4938135;28;98041;-66